Time;durP1;ratioP1;P1;durP2;ratioP2;P2;SDS_P1;SDS_P2;PMS_P1;PMS_P2;Temp;Humidity;BMP_temperature;BMP_pressure;BME280_temperature;BME280_humidity;BME280_pressure;Samples;Min_cycle;Max_cycle;Signal;HPM_P1;HPM_P2
2022/04/30 00:00:34;;;;;;;2.83;2.53;;;12.80;73.60;;;;;;4994817;28;20437;-66
2022/04/30 00:03:00;;;;;;;6.33;3.07;;;12.70;73.90;;;;;;5012466;28;20603;-66
2022/04/30 00:05:30;;;;;;;3.60;2.67;;;12.60;74.20;;;;;;5012708;28;20400;-66
2022/04/30 00:07:56;;;;;;;6.50;3.03;;;12.60;74.60;;;;;;5012636;28;20415;-67
2022/04/30 00:10:21;;;;;;;3.17;2.27;;;12.50;74.60;;;;;;5012399;28;20407;-66
2022/04/30 00:12:47;;;;;;;3.63;2.23;;;12.50;74.40;;;;;;4994745;28;20557;-69
2022/04/30 00:15:13;;;;;;;4.60;2.60;;;12.50;75.40;;;;;;5012391;28;20233;-66
2022/04/30 00:17:39;;;;;;;3.37;2.57;;;12.40;75.50;;;;;;5011871;28;20168;-66
2022/04/30 00:20:06;;;;;;;4.00;2.10;;;12.40;75.40;;;;;;5011902;28;20408;-68
2022/04/30 00:22:31;;;;;;;2.27;2.00;;;12.30;75.50;;;;;;5011459;28;20204;-67
2022/04/30 00:24:57;;;;;;;3.40;2.70;;;12.30;75.40;;;;;;5011805;28;20418;-67
2022/04/30 00:27:22;;;;;;;2.40;2.20;;;12.30;75.00;;;;;;5011954;28;20605;-66
2022/04/30 00:29:48;;;;;;;3.63;2.60;;;12.20;75.30;;;;;;4994224;28;20514;-66
2022/04/30 00:32:15;;;;;;;2.47;2.00;;;12.20;76.60;;;;;;5011987;28;20235;-67
2022/04/30 00:34:41;;;;;;;5.77;2.80;;;12.10;77.10;;;;;;5012275;28;20172;-67
2022/04/30 00:37:06;;;;;;;5.10;3.50;;;12.00;78.90;;;;;;5011923;28;20929;-67
2022/04/30 00:39:33;;;;;;;3.63;3.03;;;12.10;81.10;;;;;;5011888;28;20234;-67
2022/04/30 00:41:59;;;;;;;5.13;3.80;;;12.10;83.30;;;;;;5011792;28;20199;-67
2022/04/30 00:44:25;;;;;;;4.30;3.73;;;12.00;86.20;;;;;;5011803;28;20415;-67
2022/04/30 00:46:50;;;;;;;5.27;4.00;;;12.00;87.70;;;;;;5011953;28;20416;-67
2022/04/30 00:49:16;;;;;;;7.33;5.27;;;11.90;89.50;;;;;;5013916;28;20473;-68
2022/04/30 00:51:43;;;;;;;5.53;4.80;;;11.80;90.40;;;;;;5014719;28;20208;-67
2022/04/30 00:54:11;;;;;;;6.70;3.87;;;11.80;91.60;;;;;;5015214;28;20164;-67
2022/04/30 00:56:44;;;;;;;5.40;3.77;;;11.70;92.50;;;;;;4994189;28;20422;-66
2022/04/30 00:59:16;;;;;;;5.93;5.33;;;11.60;93.40;;;;;;5012105;28;20823;-68
2022/04/30 01:01:42;;;;;;;6.33;5.20;;;11.60;94.00;;;;;;5014707;28;20411;-68
2022/04/30 01:04:08;;;;;;;5.57;4.10;;;11.50;94.70;;;;;;5016123;28;20502;-68
2022/04/30 01:06:51;;;;;;;5.80;4.60;;;11.50;94.80;;;;;;5015837;28;20507;-67
2022/04/30 01:09:25;;;;;;;4.57;3.77;;;11.40;95.30;;;;;;5015701;28;20176;-67
2022/04/30 01:12:00;;;;;;;7.77;4.90;;;11.40;95.90;;;;;;5015165;28;20833;-67
2022/04/30 01:14:29;;;;;;;4.90;3.80;;;11.40;96.10;;;;;;5015432;28;20420;-68
2022/04/30 01:16:59;;;;;;;5.17;4.43;;;11.30;96.20;;;;;;5015471;28;20503;-67
2022/04/30 01:19:27;;;;;;;5.10;4.27;;;11.30;96.40;;;;;;5015375;28;20913;-68
2022/04/30 01:21:56;;;;;;;6.37;4.40;;;11.20;96.60;;;;;;5015219;28;20589;-67
2022/04/30 01:24:23;;;;;;;5.10;3.60;;;11.20;96.80;;;;;;5014815;28;20407;-67
2022/04/30 01:26:54;;;;;;;4.67;4.10;;;11.20;96.80;;;;;;5014977;28;20853;-67
2022/04/30 01:29:24;;;;;;;3.60;3.30;;;11.10;96.70;;;;;;5015296;28;20494;-67
2022/04/30 01:37:25;;;;;;;3.67;3.17;;;11.00;96.40;;;;;;5000481;28;20758;-68
2022/04/30 01:40:06;;;;;;;4.00;3.13;;;11.00;96.20;;;;;;5015202;28;20402;-68
2022/04/30 01:42:35;;;;;;;4.10;3.70;;;11.00;96.20;;;;;;5015691;28;20831;-68
2022/04/30 01:45:04;;;;;;;4.70;2.60;;;10.90;96.30;;;;;;5014921;28;20435;-69
2022/04/30 01:47:30;;;;;;;3.27;2.70;;;10.90;96.60;;;;;;5013702;28;20446;-68
2022/04/30 01:49:56;;;;;;;3.50;3.20;;;10.90;96.60;;;;;;5015167;28;20415;-68
2022/04/30 01:52:21;;;;;;;3.20;2.50;;;10.90;96.80;;;;;;5014625;28;20516;-69
2022/04/30 01:54:47;;;;;;;2.90;2.70;;;10.80;96.70;;;;;;5014605;28;20168;-68
2022/04/30 01:57:15;;;;;;;4.13;2.87;;;10.80;96.80;;;;;;4996942;28;20183;-67
2022/04/30 01:59:41;;;;;;;4.53;2.87;;;10.70;96.90;;;;;;5014893;28;20203;-67
2022/04/30 02:02:07;;;;;;;3.40;2.70;;;10.70;97.00;;;;;;5014903;28;20455;-69
2022/04/30 02:04:35;;;;;;;2.73;2.53;;;10.70;97.10;;;;;;5014645;28;20590;-68
2022/04/30 02:07:01;;;;;;;4.80;3.23;;;10.70;97.20;;;;;;5014578;28;20191;-67
2022/04/30 02:09:28;;;;;;;3.80;3.50;;;10.70;97.40;;;;;;5014246;28;20419;-67
2022/04/30 02:11:59;;;;;;;5.23;3.23;;;10.60;97.40;;;;;;5006478;28;20874;-67
2022/04/30 02:14:31;;;;;;;3.43;3.07;;;10.60;97.40;;;;;;5013438;28;20611;-67
2022/04/30 02:17:03;;;;;;;3.97;3.47;;;10.50;97.50;;;;;;4994844;28;20427;-67
2022/04/30 02:20:18;;;;;;;4.70;3.43;;;10.50;97.80;;;;;;5002817;28;20485;-67
2022/04/30 02:22:18;;;;;;;6.70;3.50;;;10.50;97.60;;;;;;5013698;28;20447;-67
2022/04/30 02:24:45;;;;;;;4.00;3.60;;;10.50;97.90;;;;;;5013930;28;20920;-67
2022/04/30 02:27:12;;;;;;;2.63;2.43;;;10.40;98.10;;;;;;5012732;28;20921;-68
2022/04/30 02:29:38;;;;;;;3.17;2.60;;;10.40;98.30;;;;;;5013287;28;20427;-67
2022/04/30 02:32:04;;;;;;;4.30;2.83;;;10.40;98.40;;;;;;4995883;28;20475;-67
2022/04/30 02:34:29;;;;;;;3.70;2.70;;;10.30;98.30;;;;;;5013679;28;20403;-68
2022/04/30 02:36:55;;;;;;;2.20;2.00;;;10.30;98.00;;;;;;5013568;28;20545;-68
2022/04/30 02:39:20;;;;;;;5.57;2.70;;;10.30;98.30;;;;;;5014063;28;20339;-67
2022/04/30 02:41:45;;;;;;;3.53;3.23;;;10.20;98.40;;;;;;5013642;28;20267;-68
2022/04/30 02:44:11;;;;;;;3.23;2.93;;;10.20;98.50;;;;;;4995370;28;20570;-67
2022/04/30 02:46:36;;;;;;;2.97;2.10;;;10.10;98.60;;;;;;5012249;28;20276;-68
2022/04/30 02:49:02;;;;;;;5.20;2.93;;;10.10;98.50;;;;;;5013796;28;20234;-67
2022/04/30 02:51:27;;;;;;;12.73;2.57;;;10.00;98.60;;;;;;5013512;28;20198;-66
2022/04/30 02:53:54;;;;;;;3.10;2.50;;;9.90;99.20;;;;;;5013742;28;20936;-66
2022/04/30 02:56:19;;;;;;;3.47;3.17;;;10.00;99.00;;;;;;5013797;28;20184;-68
2022/04/30 03:01:29;;;;;;;3.40;2.43;;;9.90;99.40;;;;;;5013655;28;20683;-67
2022/04/30 03:03:55;;;;;;;3.50;2.40;;;9.90;99.30;;;;;;5013419;28;20431;-67
2022/04/30 03:06:21;;;;;;;2.37;2.00;;;9.90;99.50;;;;;;5013781;28;20609;-67
2022/04/30 03:08:47;;;;;;;3.80;2.47;;;9.90;99.80;;;;;;5013827;28;20204;-67
2022/04/30 03:11:13;;;;;;;7.37;2.93;;;9.80;99.90;;;;;;5013742;28;20482;-68
2022/04/30 03:13:39;;;;;;;4.10;3.00;;;9.80;99.90;;;;;;5013620;28;20188;-66
2022/04/30 03:21:42;;;;;;;3.03;2.00;;;9.80;99.90;;;;;;5013985;28;20447;-67
2022/04/30 03:24:08;;;;;;;2.70;2.50;;;9.80;99.80;;;;;;5013147;28;20407;-67
2022/04/30 03:26:33;;;;;;;2.63;2.23;;;9.80;99.80;;;;;;5012835;28;20433;-67
2022/04/30 03:28:59;;;;;;;2.30;2.07;;;9.80;99.40;;;;;;5013002;28;20776;-68
2022/04/30 03:31:24;;;;;;;2.07;1.93;;;9.80;99.60;;;;;;5012787;28;20210;-67
2022/04/30 03:33:50;;;;;;;2.63;2.37;;;9.80;99.70;;;;;;4994820;28;20204;-68
2022/04/30 03:36:18;;;;;;;2.60;2.40;;;9.80;99.70;;;;;;5012714;28;20267;-68
2022/04/30 03:38:44;;;;;;;3.17;2.23;;;9.80;99.60;;;;;;5012852;28;20477;-68
2022/04/30 03:41:10;;;;;;;2.70;2.50;;;9.80;99.40;;;;;;5012871;28;20502;-68
2022/04/30 03:43:35;;;;;;;3.33;2.57;;;9.80;99.20;;;;;;5012763;28;20856;-68
2022/04/30 03:46:01;;;;;;;2.17;2.07;;;9.80;99.30;;;;;;5012636;28;20490;-68
2022/04/30 03:48:26;;;;;;;2.53;2.20;;;9.80;99.40;;;;;;5012897;28;20195;-67
2022/04/30 03:50:52;;;;;;;4.30;2.40;;;9.80;99.60;;;;;;5012447;28;20655;-68
2022/04/30 03:53:18;;;;;;;3.50;3.20;;;9.70;99.90;;;;;;5012453;28;20184;-68
2022/04/30 03:55:43;;;;;;;4.67;2.07;;;9.60;99.90;;;;;;5012540;28;20411;-68
2022/04/30 03:58:09;;;;;;;3.33;2.30;;;9.60;99.90;;;;;;5012408;28;20172;-67
2022/04/30 04:00:34;;;;;;;2.67;2.47;;;9.60;99.90;;;;;;5012612;28;20315;-68
2022/04/30 04:03:00;;;;;;;3.77;2.80;;;9.70;99.90;;;;;;5012805;28;20212;-67
2022/04/30 04:05:26;;;;;;;3.33;2.23;;;9.70;99.90;;;;;;4995084;28;20789;-68
2022/04/30 04:07:52;;;;;;;2.77;2.57;;;9.70;99.90;;;;;;5012825;28;20192;-67
2022/04/30 04:10:17;;;;;;;3.27;2.40;;;9.70;99.90;;;;;;5012453;28;20220;-67
2022/04/30 04:12:43;;;;;;;3.37;3.10;;;9.70;99.90;;;;;;5012059;28;20469;-67
2022/04/30 04:17:54;;;;;;;4.00;1.93;;;9.60;99.90;;;;;;5012336;28;20240;-68
2022/04/30 04:20:27;;;;;;;2.50;2.30;;;9.70;99.90;;;;;;5012095;28;20407;-67
2022/04/30 04:22:53;;;;;;;3.50;2.20;;;9.70;99.90;;;;;;5011970;28;20981;-67
2022/04/30 04:28:04;;;;;;;2.53;2.10;;;9.80;99.90;;;;;;5012483;28;20410;-70
2022/04/30 04:30:31;;;;;;;4.27;2.97;;;9.80;99.90;;;;;;5011967;28;20465;-67
2022/04/30 04:32:57;;;;;;;2.73;2.40;;;9.70;99.90;;;;;;5046056;22;20896;-73
2022/04/30 04:35:24;;;;;;;3.67;2.90;;;9.80;99.90;;;;;;5050693;28;20950;-71
2022/04/30 04:37:50;;;;;;;5.80;3.80;;;9.80;99.90;;;;;;5051486;28;20765;-70
2022/04/30 04:40:17;;;;;;;3.40;3.10;;;9.80;99.90;;;;;;5051523;28;20543;-70
2022/04/30 04:42:44;;;;;;;2.60;2.20;;;9.80;99.90;;;;;;5051381;28;20789;-72
2022/04/30 04:45:10;;;;;;;3.87;2.70;;;9.80;99.90;;;;;;5051393;28;20401;-71
2022/04/30 04:47:40;;;;;;;6.63;2.97;;;9.80;99.90;;;;;;5051448;28;20448;-70
2022/04/30 04:50:08;;;;;;;5.43;2.47;;;9.80;99.90;;;;;;5051196;28;20507;-70
2022/04/30 04:52:34;;;;;;;2.80;2.37;;;9.80;99.90;;;;;;5051094;28;20453;-70
2022/04/30 04:54:59;;;;;;;3.30;2.47;;;9.90;99.90;;;;;;5051291;28;20964;-70
2022/04/30 04:57:25;;;;;;;3.30;2.93;;;9.90;99.90;;;;;;5051320;28;20245;-72
2022/04/30 04:59:51;;;;;;;4.93;3.70;;;9.90;99.90;;;;;;5051337;28;20175;-71
2022/04/30 05:02:17;;;;;;;6.20;3.53;;;9.90;99.90;;;;;;5051327;28;20246;-70
2022/04/30 05:04:43;;;;;;;3.07;2.73;;;10.00;99.90;;;;;;5051036;28;20169;-70
2022/04/30 05:07:08;;;;;;;3.47;2.67;;;10.00;99.90;;;;;;5051373;28;20912;-71
2022/04/30 05:09:33;;;;;;;3.97;2.43;;;10.00;99.90;;;;;;5051457;28;20169;-71
2022/04/30 05:12:02;;;;;;;2.60;2.27;;;10.10;99.90;;;;;;5051179;28;20252;-72
2022/04/30 05:14:32;;;;;;;3.10;2.27;;;10.10;99.90;;;;;;5051237;28;20262;-71
2022/04/30 05:17:01;;;;;;;2.47;2.27;;;10.20;99.90;;;;;;5051436;28;20500;-71
2022/04/30 05:19:27;;;;;;;3.20;2.60;;;10.20;99.90;;;;;;5051170;28;20429;-71
2022/04/30 05:21:52;;;;;;;3.70;3.40;;;10.30;99.90;;;;;;5050884;28;20903;-71
2022/04/30 05:24:18;;;;;;;4.13;2.90;;;10.30;99.90;;;;;;5050959;28;20195;-70
2022/04/30 05:26:44;;;;;;;2.63;2.40;;;10.40;99.90;;;;;;5051007;28;20182;-70
2022/04/30 05:29:09;;;;;;;4.17;2.27;;;10.50;99.90;;;;;;5051161;28;20664;-71
2022/04/30 05:31:35;;;;;;;3.60;2.57;;;10.50;99.90;;;;;;5040454;28;20557;-70
2022/04/30 05:34:01;;;;;;;4.50;2.50;;;10.60;99.90;;;;;;5050819;28;20694;-71
2022/04/30 05:36:26;;;;;;;3.83;2.27;;;10.60;99.90;;;;;;5051015;28;20488;-71
2022/04/30 05:38:51;;;;;;;3.57;3.07;;;10.70;99.90;;;;;;5051050;28;20312;-71
2022/04/30 05:41:17;;;;;;;3.97;2.93;;;10.70;99.90;;;;;;5051044;28;20178;-71
2022/04/30 05:43:43;;;;;;;2.20;2.00;;;10.70;99.90;;;;;;5046487;28;20285;-69
2022/04/30 05:46:09;;;;;;;4.03;2.70;;;10.80;99.90;;;;;;5040338;28;21270;-71
2022/04/30 05:48:34;;;;;;;8.20;3.27;;;10.70;99.90;;;;;;5044572;28;20414;-71
2022/04/30 05:51:02;;;;;;;3.67;3.13;;;10.70;99.90;;;;;;5034452;28;20310;-70
2022/04/30 05:53:28;;;;;;;3.00;2.70;;;10.80;99.90;;;;;;5035274;28;20199;-69
2022/04/30 05:55:53;;;;;;;4.83;3.20;;;10.80;99.90;;;;;;5034200;28;20406;-70
2022/04/30 05:58:19;;;;;;;3.57;3.23;;;10.60;99.90;;;;;;5034370;28;20630;-70
2022/04/30 06:00:45;;;;;;;5.10;2.90;;;10.90;99.90;;;;;;5035261;28;20254;-71
2022/04/30 06:03:10;;;;;;;5.60;3.37;;;11.00;99.90;;;;;;5033768;28;21176;-69
2022/04/30 06:05:37;;;;;;;3.50;2.50;;;11.10;99.90;;;;;;5034113;28;20171;-72
2022/04/30 06:08:03;;;;;;;3.03;2.70;;;11.30;99.90;;;;;;5034647;28;20214;-71
2022/04/30 06:10:29;;;;;;;4.07;3.17;;;11.40;99.90;;;;;;5034382;28;20406;-71
2022/04/30 06:12:54;;;;;;;6.40;2.93;;;11.70;99.90;;;;;;5033989;28;20537;-71
2022/04/30 06:15:20;;;;;;;3.07;2.60;;;11.90;99.90;;;;;;5034096;28;20180;-72
2022/04/30 06:17:45;;;;;;;2.80;2.60;;;11.70;99.90;;;;;;5034939;28;20168;-72
2022/04/30 06:20:11;;;;;;;4.87;2.77;;;11.80;99.90;;;;;;5033938;28;20623;-70
2022/04/30 06:22:36;;;;;;;3.90;2.33;;;11.50;99.90;;;;;;5033874;28;20584;-73
2022/04/30 06:25:02;;;;;;;5.20;2.80;;;11.70;99.90;;;;;;5033953;28;20410;-72
2022/04/30 06:27:28;;;;;;;5.67;2.63;;;12.20;99.90;;;;;;5034081;28;20175;-72
2022/04/30 06:29:53;;;;;;;2.97;2.30;;;12.20;99.90;;;;;;5033988;28;20402;-70
2022/04/30 06:32:19;;;;;;;4.40;2.83;;;12.20;99.90;;;;;;5033461;28;20405;-70
2022/04/30 06:34:44;;;;;;;2.90;2.70;;;12.40;99.90;;;;;;5033887;28;20313;-72
2022/04/30 06:37:10;;;;;;;3.17;2.87;;;12.30;99.90;;;;;;5033910;28;20167;-74
2022/04/30 06:39:35;;;;;;;3.43;2.17;;;12.60;99.90;;;;;;5016146;28;20168;-72
2022/04/30 06:42:01;;;;;;;2.80;2.30;;;12.50;99.90;;;;;;5033727;28;20176;-72
2022/04/30 06:44:26;;;;;;;2.30;2.10;;;12.80;99.90;;;;;;5033432;28;20203;-72
2022/04/30 06:46:52;;;;;;;2.97;2.33;;;12.30;99.90;;;;;;5053236;28;20254;-71
2022/04/30 06:49:17;;;;;;;5.13;2.17;;;12.50;99.90;;;;;;5053496;28;20661;-71
2022/04/30 06:51:42;;;;;;;5.43;3.00;;;12.70;99.90;;;;;;5053099;28;20225;-73
2022/04/30 06:59:42;;;;;;;2.50;2.30;;;12.30;99.90;;;;;;5052722;28;20400;-73
2022/04/30 07:02:13;;;;;;;3.10;2.60;;;12.40;99.90;;;;;;5035458;28;20508;-71
2022/04/30 07:04:42;;;;;;;6.07;4.07;;;12.40;99.90;;;;;;5053643;28;21158;-73
2022/04/30 07:07:08;;;;;;;5.57;4.57;;;12.40;99.90;;;;;;5053828;28;20417;-73
2022/04/30 07:09:34;;;;;;;5.40;3.93;;;12.50;99.90;;;;;;5055474;28;20772;-72
2022/04/30 07:12:06;;;;;;;2.90;2.30;;;12.90;99.90;;;;;;5057584;28;20932;-73
2022/04/30 07:14:35;;;;;;;3.10;2.30;;;12.90;99.90;;;;;;5057484;28;20409;-73
2022/04/30 07:17:02;;;;;;;2.90;2.60;;;13.10;99.90;;;;;;5055722;28;20428;-72
2022/04/30 07:19:27;;;;;;;2.53;2.27;;;14.10;99.70;;;;;;5046381;28;20396;-72
2022/04/30 07:21:53;;;;;;;2.60;2.20;;;15.20;96.80;;;;;;5033255;28;20419;-73
2022/04/30 07:24:18;;;;;;;3.60;2.43;;;14.90;97.20;;;;;;5033130;28;20213;-72
2022/04/30 07:26:43;;;;;;;2.60;2.40;;;14.90;97.50;;;;;;5033052;28;20614;-71
2022/04/30 07:29:09;;;;;;;3.80;2.50;;;15.20;96.10;;;;;;5033208;28;20230;-70
2022/04/30 07:31:34;;;;;;;3.30;2.30;;;15.00;96.80;;;;;;5032740;28;20201;-71
2022/04/30 07:34:00;;;;;;;4.80;3.47;;;15.10;96.50;;;;;;5032747;28;20242;-71
2022/04/30 07:36:26;;;;;;;6.37;3.40;;;15.10;95.80;;;;;;5032579;28;20661;-70
2022/04/30 07:38:52;;;;;;;3.73;2.83;;;14.80;95.20;;;;;;5032515;28;20721;-72
2022/04/30 07:41:17;;;;;;;6.97;2.93;;;14.60;95.50;;;;;;5032716;28;20503;-71
2022/04/30 07:43:43;;;;;;;3.20;2.90;;;15.00;94.80;;;;;;5032463;28;20273;-71
2022/04/30 07:46:08;;;;;;;3.73;2.83;;;15.10;95.10;;;;;;5041344;28;20207;-71
2022/04/30 07:48:34;;;;;;;4.00;2.97;;;15.20;94.70;;;;;;5052745;28;20174;-71
2022/04/30 07:50:59;;;;;;;5.47;3.43;;;15.40;95.70;;;;;;5052562;28;20495;-71
2022/04/30 07:53:25;;;;;;;2.70;2.37;;;15.50;95.60;;;;;;5051978;28;20194;-71
2022/04/30 07:55:52;;;;;;;3.53;2.40;;;15.50;94.80;;;;;;5051966;28;20170;-72
2022/04/30 07:58:18;;;;;;;3.30;2.60;;;15.80;94.60;;;;;;5052512;28;20427;-72
2022/04/30 08:00:44;;;;;;;3.00;2.73;;;16.10;94.80;;;;;;5053242;28;20408;-71
2022/04/30 08:03:09;;;;;;;4.00;3.60;;;15.80;95.00;;;;;;5052721;28;20195;-71
2022/04/30 08:05:34;;;;;;;8.43;5.93;;;15.90;94.60;;;;;;5052668;28;20178;-71
2022/04/30 08:08:00;;;;;;;2.63;2.43;;;16.00;94.00;;;;;;5052364;28;20175;-71
2022/04/30 08:10:26;;;;;;;2.63;2.43;;;16.00;92.80;;;;;;5052242;28;20175;-71
2022/04/30 08:12:56;;;;;;;3.50;2.20;;;15.40;93.90;;;;;;5051713;28;20259;-71
2022/04/30 08:15:26;;;;;;;2.30;1.83;;;15.50;93.50;;;;;;5051803;28;20594;-71
2022/04/30 08:17:52;;;;;;;2.60;2.27;;;15.40;93.60;;;;;;5052212;28;20773;-71
2022/04/30 08:20:18;;;;;;;2.77;2.47;;;15.80;93.90;;;;;;5051787;28;20406;-71
2022/04/30 08:22:43;;;;;;;5.20;1.97;;;16.30;92.80;;;;;;5051565;28;20425;-71
2022/04/30 08:25:10;;;;;;;4.93;2.40;;;16.00;92.60;;;;;;5051864;28;20167;-71
2022/04/30 08:27:35;;;;;;;2.53;1.60;;;17.00;91.60;;;;;;5051796;28;20632;-71
2022/04/30 08:30:00;;;;;;;2.13;1.77;;;16.10;92.20;;;;;;5052000;28;20425;-71
2022/04/30 08:32:26;;;;;;;2.10;1.73;;;17.10;91.50;;;;;;5051220;28;20204;-71
2022/04/30 08:34:53;;;;;;;3.63;1.83;;;17.20;90.20;;;;;;5051686;28;20202;-72
2022/04/30 08:37:18;;;;;;;2.40;2.20;;;17.30;90.00;;;;;;5051628;28;20216;-72
2022/04/30 08:39:44;;;;;;;2.10;1.90;;;16.80;90.00;;;;;;5051674;28;20402;-72
2022/04/30 08:42:12;;;;;;;2.23;1.83;;;16.50;89.70;;;;;;5051590;28;20165;-72
2022/04/30 08:44:39;;;;;;;2.97;2.00;;;16.70;90.50;;;;;;5051531;28;20402;-73
2022/04/30 08:47:05;;;;;;;8.63;5.30;;;17.30;88.60;;;;;;5051666;28;20412;-73
2022/04/30 08:49:31;;;;;;;6.17;4.57;;;17.40;90.10;;;;;;5051769;28;20438;-71
2022/04/30 08:51:57;;;;;;;4.13;2.40;;;16.80;90.10;;;;;;5051421;28;20488;-71
2022/04/30 08:54:23;;;;;;;3.23;2.30;;;16.50;89.90;;;;;;5051498;28;20426;-73
2022/04/30 08:56:53;;;;;;;3.47;2.10;;;17.20;90.00;;;;;;5051143;28;20179;-71
2022/04/30 08:59:19;;;;;;;2.30;2.10;;;17.20;88.50;;;;;;5051486;28;20260;-72
2022/04/30 09:01:45;;;;;;;2.83;2.20;;;16.80;89.60;;;;;;5052076;28;20840;-72
2022/04/30 09:04:11;;;;;;;2.00;1.80;;;16.60;90.00;;;;;;5051663;28;20274;-72
2022/04/30 09:06:44;;;;;;;2.77;2.57;;;16.70;90.10;;;;;;5052273;28;20833;-74
2022/04/30 09:09:09;;;;;;;4.07;3.13;;;16.80;89.90;;;;;;5051674;28;20642;-72
2022/04/30 09:11:39;;;;;;;2.80;2.60;;;16.50;90.30;;;;;;5052100;28;20502;-71
2022/04/30 09:14:05;;;;;;;3.47;2.00;;;16.50;90.00;;;;;;5052191;28;20187;-71
2022/04/30 09:16:30;;;;;;;1.80;1.67;;;16.00;90.50;;;;;;5051981;28;20487;-70
2022/04/30 09:19:02;;;;;;;3.10;1.93;;;16.10;91.00;;;;;;5052136;28;20652;-70
2022/04/30 09:21:27;;;;;;;2.63;2.43;;;16.10;90.50;;;;;;5052672;28;20171;-72
2022/04/30 09:24:03;;;;;;;3.40;2.53;;;16.10;90.40;;;;;;5056187;28;20571;-71
2022/04/30 09:26:41;;;;;;;2.67;1.87;;;16.90;89.00;;;;;;5038855;28;20190;-71
2022/04/30 09:29:23;;;;;;;3.43;2.40;;;16.80;89.50;;;;;;5056976;28;20405;-70
2022/04/30 09:31:52;;;;;;;7.37;4.27;;;16.80;89.20;;;;;;5040522;28;20462;-71
2022/04/30 09:39:48;;;;;;;4.30;2.00;;;16.10;90.70;;;;;;5055261;28;20402;-71
2022/04/30 09:42:14;;;;;;;3.10;1.87;;;16.90;90.00;;;;;;5055129;28;20441;-71
2022/04/30 09:44:39;;;;;;;2.47;2.27;;;17.50;88.10;;;;;;5054500;28;20814;-71
2022/04/30 09:47:07;;;;;;;3.53;1.97;;;16.80;87.80;;;;;;5054606;28;20642;-70
2022/04/30 09:55:06;;;;;;;2.57;2.37;;;17.40;86.80;;;;;;5056096;28;20922;-71
2022/04/30 09:57:35;;;;;;;2.57;2.30;;;17.20;87.60;;;;;;5055837;28;20398;-72
2022/04/30 10:00:01;;;;;;;3.93;2.23;;;17.10;86.10;;;;;;5053670;28;21003;-71
2022/04/30 10:02:30;;;;;;;4.17;2.23;;;16.80;86.80;;;;;;5018039;28;20820;-70
2022/04/30 10:04:56;;;;;;;2.80;2.60;;;17.10;88.00;;;;;;5036981;28;20409;-70
2022/04/30 10:07:25;;;;;;;1.70;1.60;;;17.20;87.50;;;;;;5054251;28;21006;-71
2022/04/30 10:10:11;;;;;;;5.23;2.60;;;17.30;88.40;;;;;;5055052;28;20409;-72
2022/04/30 10:12:47;;;;;;;2.40;1.97;;;17.50;87.40;;;;;;5054795;28;20461;-71
2022/04/30 10:15:28;;;;;;;2.60;2.17;;;17.30;86.90;;;;;;5054015;28;20455;-71
2022/04/30 10:17:57;;;;;;;3.00;2.27;;;17.60;86.00;;;;;;5055215;28;20395;-71
2022/04/30 10:20:29;;;;;;;3.03;2.00;;;17.60;86.50;;;;;;5037749;28;20419;-72
2022/04/30 10:22:57;;;;;;;3.53;2.37;;;17.80;85.40;;;;;;5039665;28;20438;-72
2022/04/30 10:25:37;;;;;;;2.80;1.80;;;17.90;83.90;;;;;;5022173;28;20936;-71
2022/04/30 10:28:14;;;;;;;2.83;2.23;;;18.20;81.50;;;;;;5055175;28;20409;-72
2022/04/30 10:30:40;;;;;;;2.50;1.93;;;18.10;81.10;;;;;;5055426;28;20455;-71
2022/04/30 10:33:08;;;;;;;1.97;1.80;;;17.70;79.70;;;;;;5055983;28;20867;-72
2022/04/30 10:35:43;;;;;;;4.03;2.37;;;17.80;79.60;;;;;;5056938;28;20172;-72
2022/04/30 10:38:10;;;;;;;2.13;2.03;;;18.60;80.20;;;;;;5057366;28;20416;-73
2022/04/30 10:40:40;;;;;;;2.40;2.20;;;18.50;80.40;;;;;;5056393;28;20410;-72
2022/04/30 10:43:37;;;;;;;2.40;2.20;;;18.50;78.90;;;;;;5054399;28;20847;-72
2022/04/30 10:46:05;;;;;;;2.40;2.00;;;18.40;78.00;;;;;;5054590;28;20783;-71
2022/04/30 10:48:35;;;;;;;2.17;1.90;;;17.80;78.60;;;;;;5054254;28;20960;-72
2022/04/30 10:51:08;;;;;;;2.27;2.07;;;18.10;78.40;;;;;;5054382;28;20968;-71
2022/04/30 10:53:38;;;;;;;2.03;1.83;;;17.80;78.80;;;;;;5052725;28;20452;-71
2022/04/30 10:56:05;;;;;;;2.20;1.90;;;18.30;78.90;;;;;;5054238;28;20407;-72
2022/04/30 10:58:31;;;;;;;3.23;2.67;;;18.90;77.20;;;;;;5054260;28;20398;-72
2022/04/30 11:00:58;;;;;;;3.63;2.10;;;18.60;76.70;;;;;;5054466;28;20406;-72
2022/04/30 11:03:33;;;;;;;2.47;2.10;;;18.10;78.50;;;;;;5054315;28;20425;-72
2022/04/30 11:05:58;;;;;;;2.70;2.50;;;18.20;79.60;;;;;;5055636;28;20416;-72
2022/04/30 11:08:24;;;;;;;2.77;2.40;;;18.00;79.30;;;;;;5054703;28;20403;-71
2022/04/30 11:10:51;;;;;;;2.63;2.03;;;18.00;79.10;;;;;;5054641;28;20170;-70
2022/04/30 11:13:16;;;;;;;2.00;1.67;;;18.50;77.70;;;;;;5054640;28;20198;-72
2022/04/30 11:15:42;;;;;;;1.70;1.60;;;18.90;77.10;;;;;;5041231;28;20420;-72
2022/04/30 11:18:08;;;;;;;4.00;2.13;;;19.00;77.10;;;;;;5035300;28;20251;-73
2022/04/30 11:20:34;;;;;;;5.30;2.77;;;19.00;76.00;;;;;;5035119;28;20178;-73
2022/04/30 11:23:02;;;;;;;2.00;1.90;;;19.30;75.50;;;;;;5034075;28;20991;-73
2022/04/30 11:25:38;;;;;;;2.60;2.40;;;19.00;75.00;;;;;;5034557;28;20168;-73
2022/04/30 11:28:08;;;;;;;5.10;2.13;;;18.90;75.60;;;;;;5033959;28;20423;-73
2022/04/30 11:30:37;;;;;;;2.67;2.30;;;19.00;74.40;;;;;;5034276;28;20501;-74
2022/04/30 11:33:06;;;;;;;1.97;1.70;;;19.00;75.40;;;;;;5034285;28;20460;-72
2022/04/30 11:35:32;;;;;;;2.30;2.13;;;18.90;75.30;;;;;;5034402;28;20403;-74
2022/04/30 11:37:58;;;;;;;2.80;1.70;;;19.00;74.30;;;;;;5034290;28;21162;-73
2022/04/30 11:40:25;;;;;;;2.87;2.00;;;19.00;74.40;;;;;;5034194;28;20502;-73
2022/04/30 11:42:58;;;;;;;2.47;2.13;;;19.10;72.00;;;;;;5033977;28;20223;-74
2022/04/30 11:45:25;;;;;;;3.47;2.70;;;19.40;71.00;;;;;;5047856;28;20436;-74
2022/04/30 11:47:51;;;;;;;2.57;1.90;;;19.50;69.80;;;;;;5054690;28;20774;-73
2022/04/30 11:50:17;;;;;;;1.90;1.80;;;19.70;68.40;;;;;;5054100;28;20415;-73
2022/04/30 11:52:43;;;;;;;3.17;2.40;;;19.50;68.70;;;;;;5053494;28;20366;-72
2022/04/30 11:55:09;;;;;;;2.10;1.57;;;19.30;69.30;;;;;;5035875;28;20644;-73
2022/04/30 11:57:40;;;;;;;2.00;1.53;;;19.50;69.10;;;;;;5053675;28;20531;-73
2022/04/30 12:00:07;;;;;;;1.80;1.70;;;19.50;67.60;;;;;;5053570;28;20193;-73
2022/04/30 12:02:32;;;;;;;1.97;1.40;;;19.20;68.90;;;;;;5035745;28;20434;-72
2022/04/30 12:05:03;;;;;;;1.87;1.70;;;19.00;70.00;;;;;;5053743;28;20418;-73
2022/04/30 12:07:43;;;;;;;5.17;2.13;;;18.90;69.50;;;;;;5053703;28;20180;-72
2022/04/30 12:10:20;;;;;;;2.20;2.00;;;18.80;69.80;;;;;;5053613;28;20401;-73
2022/04/30 12:12:47;;;;;;;2.37;2.10;;;18.80;70.90;;;;;;5053087;28;20819;-73
2022/04/30 12:15:19;;;;;;;2.17;1.97;;;18.90;70.30;;;;;;5053738;28;20970;-73
2022/04/30 12:17:45;;;;;;;4.60;2.30;;;19.00;70.40;;;;;;5053821;28;20884;-72
2022/04/30 12:25:47;;;;;;;4.47;2.43;;;19.70;67.30;;;;;;5053433;28;20435;-73
2022/04/30 12:28:12;;;;;;;1.90;1.80;;;20.20;67.40;;;;;;5053322;28;20905;-74
2022/04/30 12:30:52;;;;;;;2.17;1.83;;;20.40;67.30;;;;;;5053378;28;20366;-71
2022/04/30 12:33:18;;;;;;;1.57;1.47;;;20.10;65.90;;;;;;5052677;28;20737;-74
2022/04/30 12:35:44;;;;;;;3.10;2.80;;;20.10;65.90;;;;;;5053099;28;20561;-73
2022/04/30 12:38:12;;;;;;;3.23;2.83;;;20.30;65.00;;;;;;5052751;28;20788;-74
2022/04/30 12:40:47;;;;;;;5.00;2.47;;;20.10;64.70;;;;;;5052957;28;20422;-73
2022/04/30 12:43:16;;;;;;;4.43;2.20;;;19.90;63.70;;;;;;5052384;28;20422;-74
2022/04/30 12:45:43;;;;;;;2.50;2.10;;;19.80;65.20;;;;;;5034807;28;20479;-73
2022/04/30 12:48:09;;;;;;;4.07;2.13;;;19.90;65.40;;;;;;5052827;28;20415;-72
2022/04/30 12:50:36;;;;;;;2.13;2.03;;;19.80;64.30;;;;;;5052623;28;20408;-74
2022/04/30 12:53:01;;;;;;;3.20;2.27;;;19.80;64.50;;;;;;5052283;28;20455;-73
2022/04/30 12:55:29;;;;;;;2.43;1.90;;;20.00;63.00;;;;;;5052691;28;20505;-73
2022/04/30 12:57:55;;;;;;;4.00;2.10;;;19.80;62.50;;;;;;5052085;28;20167;-73
2022/04/30 13:00:20;;;;;;;2.17;1.90;;;19.80;62.40;;;;;;5052486;28;20415;-73
2022/04/30 13:02:46;;;;;;;3.13;2.30;;;19.80;61.70;;;;;;5052579;28;20201;-73
2022/04/30 13:05:14;;;;;;;3.07;2.10;;;19.70;60.90;;;;;;5052626;28;20177;-73
2022/04/30 13:07:41;;;;;;;2.30;1.90;;;19.70;61.40;;;;;;5052550;28;20177;-73
2022/04/30 13:15:36;;;;;;;3.23;2.93;;;20.40;58.60;;;;;;5052357;28;20400;-73
2022/04/30 13:18:02;;;;;;;2.83;2.10;;;20.40;58.80;;;;;;5052741;28;20771;-73
2022/04/30 13:20:28;;;;;;;2.83;2.20;;;20.10;59.10;;;;;;5052841;28;20208;-73
2022/04/30 13:22:56;;;;;;;2.70;2.20;;;19.90;58.80;;;;;;5051940;28;20451;-74
2022/04/30 13:25:22;;;;;;;2.80;2.10;;;20.10;59.80;;;;;;5048869;28;20979;-74
2022/04/30 13:27:49;;;;;;;8.13;2.83;;;20.40;59.50;;;;;;5052210;28;20921;-73
2022/04/30 13:30:18;;;;;;;2.07;1.87;;;20.40;60.00;;;;;;5052123;28;20414;-74
2022/04/30 13:32:44;;;;;;;2.73;2.50;;;20.50;58.40;;;;;;5052509;28;20463;-73
2022/04/30 13:35:10;;;;;;;2.60;2.40;;;20.20;57.70;;;;;;5052543;28;20867;-73